Terminal Aerodrome Forecast
Issued by NWS

Home | Current Version | Previous Version | Text Only | Print | Product List | Glossary On
Versions: 1 2 3 4 5 6 7 8 9 10 11 12 13 14 15 16 17 18 19 20 21 22
692
FTUS41 KCLE 191720
TAFFDY
TAF
KFDY 191720Z 1918/2018 28018G28KT P6SM OVC045
      TEMPO 1918/1922 OVC035
     FM200200 27013KT P6SM SCT070
     FM200800 24010KT P6SM FEW200=

USA.gov is the U.S. government's official web portal to all federal, state and local government web resources and services.